Time;durP1;ratioP1;P1;durP2;ratioP2;P2;SDS_P1;SDS_P2;PMS_P1;PMS_P2;Temp;Humidity;BMP_temperature;BMP_pressure;BME280_temperature;BME280_humidity;BME280_pressure;Samples;Min_cycle;Max_cycle;Signal;HPM_P1;HPM_P2
2022/12/22 03:27:12;;;;;;;37.40;17.35;;;;;;;2.18;100.00;98834.91;5018877;28;20347;-62
2022/12/22 03:29:38;;;;;;;43.42;17.52;;;;;;;2.26;100.00;98823.28;5019305;28;20127;-67
2022/12/22 03:32:04;;;;;;;42.45;17.25;;;;;;;2.36;100.00;98831.88;5018929;28;20050;-62
2022/12/22 03:34:31;;;;;;;41.28;18.67;;;;;;;2.40;100.00;98842.06;5019386;28;20050;-68
2022/12/22 03:36:57;;;;;;;42.70;18.60;;;;;;;2.27;100.00;98849.25;5018753;28;20102;-66
2022/12/22 03:39:23;;;;;;;42.45;18.35;;;;;;;2.21;100.00;98843.19;5019341;28;20050;-64
2022/12/22 03:47:18;;;;;;;43.05;17.50;;;;;;;1.94;100.00;98827.25;5018513;28;19980;-59
2022/12/22 03:49:45;;;;;;;49.85;19.77;;;;;;;2.04;100.00;98810.72;5018555;28;20060;-68
2022/12/22 03:52:11;;;;;;;45.78;20.10;;;;;;;2.06;100.00;98814.69;5018764;28;20149;-62
2022/12/22 03:54:38;;;;;;;41.10;18.88;;;;;;;2.29;100.00;98814.53;5018474;28;20415;-66
2022/12/22 03:57:04;;;;;;;42.45;18.50;;;;;;;2.22;100.00;98820.44;5018697;28;20140;-63
2022/12/22 03:59:30;;;;;;;40.03;17.20;;;;;;;2.24;100.00;98822.81;5018491;28;20054;-65
2022/12/22 04:01:56;;;;;;;41.67;17.95;;;;;;;2.21;100.00;98834.28;5018930;28;20361;-62
2022/12/22 04:04:24;;;;;;;43.58;17.13;;;;;;;2.43;100.00;98830.59;5018375;28;20076;-65
2022/12/22 04:06:51;;;;;;;41.90;17.35;;;;;;;2.29;100.00;98834.25;5018329;28;20068;-61
2022/12/22 04:09:18;;;;;;;37.83;17.58;;;;;;;2.30;100.00;98841.28;5018308;28;20452;-67
2022/12/22 04:14:28;;;;;;;34.30;16.88;;;;;;;2.29;100.00;98838.88;5018628;28;20061;-67
2022/12/22 04:16:54;;;;;;;44.20;17.58;;;;;;;2.18;100.00;98838.41;5018122;28;20335;-59
2022/12/22 04:19:21;;;;;;;40.17;16.70;;;;;;;2.09;100.00;98824.06;5018448;28;20065;-66
2022/12/22 04:21:47;;;;;;;38.10;15.93;;;;;;;2.21;100.00;98818.84;5018054;28;20050;-61
2022/12/22 04:24:14;;;;;;;40.20;17.13;;;;;;;1.97;100.00;98807.69;5018708;28;20431;-68
2022/12/22 04:26:40;;;;;;;42.08;17.23;;;;;;;2.05;100.00;98807.69;5018032;28;20153;-64
2022/12/22 04:29:07;;;;;;;42.13;17.40;;;;;;;2.11;100.00;98795.63;5018414;28;20116;-59
2022/12/22 04:31:33;;;;;;;43.15;17.30;;;;;;;1.88;100.00;98784.13;5017935;28;20054;-67
2022/12/22 04:33:59;;;;;;;36.92;16.17;;;;;;;1.59;100.00;98773.91;5017909;28;20066;-65
2022/12/22 04:36:26;;;;;;;44.88;18.30;;;;;;;1.82;100.00;98725.94;5017872;28;20396;-61
2022/12/22 04:38:52;;;;;;;49.90;17.63;;;;;;;1.91;100.00;98722.47;5017790;28;20104;-65
2022/12/22 04:41:19;;;;;;;42.03;16.25;;;;;;;2.12;100.00;98713.38;5018192;28;20056;-61
2022/12/22 04:43:45;;;;;;;49.97;17.23;;;;;;;2.27;100.00;98725.63;5017995;28;20537;-64
2022/12/22 04:46:11;;;;;;;40.38;17.15;;;;;;;2.20;100.00;98749.66;5018125;28;20057;-63
2022/12/22 04:48:38;;;;;;;48.03;18.25;;;;;;;1.88;100.00;98762.50;5017861;28;20046;-65
2022/12/22 04:51:05;;;;;;;41.55;18.13;;;;;;;1.93;100.00;98742.63;5017937;28;20050;-64
2022/12/22 04:53:31;;;;;;;47.42;18.73;;;;;;;2.17;100.00;98728.66;5017604;28;20327;-64
2022/12/22 04:56:00;;;;;;;44.95;18.50;;;;;;;2.19;100.00;98758.06;5017893;28;20385;-63
2022/12/22 04:58:27;;;;;;;47.78;18.70;;;;;;;2.35;100.00;98768.06;5016449;28;20057;-60
2022/12/22 05:00:54;;;;;;;45.85;17.00;;;;;;;2.38;100.00;98796.41;5017912;28;20148;-66
2022/12/22 05:03:20;;;;;;;48.90;18.73;;;;;;;2.35;100.00;98814.06;5017265;28;20054;-59
2022/12/22 05:05:46;;;;;;;53.72;19.85;;;;;;;2.28;100.00;98827.28;5017208;28;20561;-64
2022/12/22 05:08:13;;;;;;;61.83;20.52;;;;;;;2.38;100.00;98834.28;5017309;28;20053;-66
2022/12/22 05:10:39;;;;;;;56.97;18.45;;;;;;;2.28;100.00;98837.31;5017311;28;20068;-60
2022/12/22 05:13:06;;;;;;;55.05;19.17;;;;;;;2.40;100.00;98845.59;5017438;28;20204;-59
2022/12/22 05:15:34;;;;;;;48.03;17.80;;;;;;;2.38;100.00;98857.84;5017176;28;20394;-59
2022/12/22 05:18:01;;;;;;;52.67;19.63;;;;;;;2.50;100.00;98856.09;5017266;28;20407;-61
2022/12/22 05:20:35;;;;;;;59.53;20.10;;;;;;;2.54;100.00;98862.44;5217976;27;20147;-64
2022/12/22 05:23:01;;;;;;;54.65;19.60;;;;;;;2.43;100.00;98871.19;5196307;27;20049;-67
2022/12/22 05:25:28;;;;;;;53.47;17.95;;;;;;;2.57;100.00;98875.34;5196618;27;20081;-63
2022/12/22 05:27:54;;;;;;;53.67;19.27;;;;;;;2.54;100.00;98886.81;5196478;27;20061;-71
2022/12/22 05:30:20;;;;;;;58.63;18.95;;;;;;;2.46;100.00;98898.41;5196419;27;20368;-64
2022/12/22 05:32:47;;;;;;;62.95;18.17;;;;;;;2.53;100.00;98896.03;5196626;27;20330;-68
2022/12/22 05:35:14;;;;;;;55.28;19.05;;;;;;;2.50;100.00;98902.09;5196431;27;20057;-69
2022/12/22 05:37:41;;;;;;;62.30;19.23;;;;;;;2.48;100.00;98904.31;5196666;27;20061;-65
2022/12/22 05:40:08;;;;;;;64.65;20.20;;;;;;;2.54;100.00;98902.25;5196068;27;20070;-67
2022/12/22 05:42:35;;;;;;;55.83;18.92;;;;;;;2.38;100.00;98904.63;5196671;27;20082;-69
2022/12/22 05:45:03;;;;;;;59.67;19.00;;;;;;;2.48;100.00;98893.47;5196264;27;20065;-64
2022/12/22 05:47:29;;;;;;;67.90;19.23;;;;;;;2.51;100.00;98889.34;5196030;27;20385;-67
2022/12/22 05:49:55;;;;;;;59.95;17.98;;;;;;;2.57;100.00;98893.50;5196081;27;20136;-68
2022/12/22 05:52:21;;;;;;;71.82;25.60;;;;;;;2.48;100.00;98892.69;5195998;27;20403;-67
2022/12/22 05:54:48;;;;;;;58.85;19.65;;;;;;;2.34;100.00;98890.94;5195976;27;20081;-68
2022/12/22 05:57:14;;;;;;;58.22;18.98;;;;;;;2.42;100.00;98888.53;5196168;27;20114;-68
2022/12/22 05:59:41;;;;;;;63.15;20.27;;;;;;;2.52;100.00;98886.31;5195912;27;20358;-65
2022/12/22 06:02:07;;;;;;;57.70;18.30;;;;;;;2.67;100.00;98895.09;5195779;27;20475;-68
2022/12/22 06:04:33;;;;;;;64.38;19.10;;;;;;;2.67;100.00;98903.22;5195968;27;20056;-61
2022/12/22 06:06:59;;;;;;;56.35;17.73;;;;;;;2.65;100.00;98906.22;5195841;27;20132;-67
2022/12/22 06:09:26;;;;;;;63.03;19.85;;;;;;;2.63;100.00;98919.25;5195872;27;20045;-65
2022/12/22 06:11:52;;;;;;;61.55;17.88;;;;;;;2.63;100.00;98924.69;5195741;27;20046;-67
2022/12/22 06:14:19;;;;;;;56.97;18.50;;;;;;;2.48;100.00;98928.66;5196007;27;20065;-66
2022/12/22 06:16:45;;;;;;;57.42;18.77;;;;;;;2.59;100.00;98918.31;5195411;27;20136;-68
2022/12/22 06:19:11;;;;;;;64.68;20.48;;;;;;;2.55;100.00;98917.38;5195684;27;20413;-65
2022/12/22 06:21:37;;;;;;;58.42;19.73;;;;;;;2.52;100.00;98918.00;5195283;27;20065;-71
2022/12/22 06:24:04;;;;;;;75.20;23.10;;;;;;;2.47;100.00;98910.84;5195259;27;20050;-68
2022/12/22 06:26:31;;;;;;;62.63;19.75;;;;;;;2.19;100.00;98918.41;5195338;27;20153;-69
2022/12/22 06:28:58;;;;;;;56.05;19.45;;;;;;;2.19;100.00;98891.38;5195360;27;20060;-69
2022/12/22 06:31:24;;;;;;;68.35;20.67;;;;;;;2.30;100.00;98873.75;5184462;27;20073;-68
2022/12/22 06:33:50;;;;;;;68.13;19.00;;;;;;;2.07;100.00;98869.59;5180760;27;20099;-67
2022/12/22 06:36:17;;;;;;;65.90;19.90;;;;;;;2.12;100.00;98845.06;5181235;27;20046;-65
2022/12/22 06:38:43;;;;;;;60.55;19.67;;;;;;;2.28;100.00;98838.09;5181225;27;20141;-67
2022/12/22 06:41:09;;;;;;;73.80;19.80;;;;;;;2.34;100.00;98827.91;5181570;27;20046;-65
2022/12/22 06:43:35;;;;;;;62.05;18.73;;;;;;;2.34;100.00;98836.03;5181076;27;20046;-68
2022/12/22 06:46:02;;;;;;;63.58;19.58;;;;;;;1.82;100.00;98835.97;5181426;27;20084;-69
2022/12/22 06:48:29;;;;;;;73.85;19.30;;;;;;;2.09;100.00;98797.81;5180622;27;20061;-64
2022/12/22 06:50:57;;;;;;;72.72;21.33;;;;;;;1.94;100.00;98784.78;5180867;27;20117;-70
2022/12/22 06:53:23;;;;;;;63.28;19.50;;;;;;;1.91;100.00;98760.31;5181127;27;20054;-67
2022/12/22 06:55:50;;;;;;;63.67;21.52;;;;;;;1.85;100.00;98740.72;5180892;27;20101;-70
2022/12/22 06:58:16;;;;;;;82.47;23.58;;;;;;;1.63;100.00;98730.84;5180729;27;20065;-65
2022/12/22 07:00:42;;;;;;;79.65;24.88;;;;;;;1.68;100.00;98681.28;5180728;27;20144;-69
2022/12/22 07:03:09;;;;;;;76.45;22.85;;;;;;;1.86;100.00;98656.59;5180883;27;20387;-66
2022/12/22 07:05:35;;;;;;;97.30;28.20;;;;;;;2.13;100.00;98638.44;5180748;27;20050;-69
2022/12/22 07:08:01;;;;;;;86.88;27.83;;;;;;;2.20;100.00;98646.88;5180909;27;20050;-66
2022/12/22 07:13:18;;;;;;;122.88;34.78;;;;;;;1.85;100.00;98668.53;5179558;27;20042;-71
2022/12/22 07:15:44;;;;;;;127.82;34.75;;;;;;;2.24;100.00;98652.44;5180728;27;20042;-67
2022/12/22 07:18:11;;;;;;;125.15;36.83;;;;;;;2.60;100.00;98668.25;5180349;27;20061;-73
2022/12/22 07:20:38;;;;;;;117.25;35.80;;;;;;;2.80;100.00;98710.03;5180792;27;20434;-69
2022/12/22 07:23:04;;;;;;;101.95;33.28;;;;;;;2.88;100.00;98747.13;5180809;27;20072;-72
2022/12/22 07:25:30;;;;;;;104.00;35.20;;;;;;;2.86;100.00;98783.75;5180763;27;20042;-72
2022/12/22 07:27:56;;;;;;;112.78;35.83;;;;;;;2.68;100.00;98824.38;5180389;27;20088;-72
2022/12/22 07:30:22;;;;;;;139.57;40.05;;;;;;;2.73;100.00;98839.66;5180735;27;20057;-72
2022/12/22 07:32:49;;;;;;;146.25;43.08;;;;;;;2.86;100.00;98856.84;5180315;27;20106;-73
2022/12/22 07:35:16;;;;;;;142.02;42.03;;;;;;;2.82;100.00;98857.47;5180596;27;20053;-74
2022/12/22 07:37:42;;;;;;;144.60;41.80;;;;;;;2.83;100.00;98864.50;5180153;27;20102;-73
2022/12/22 07:40:09;;;;;;;129.10;39.00;;;;;;;2.94;100.00;98870.38;5180529;27;20046;-72
2022/12/22 07:42:44;;;;;;;135.52;39.40;;;;;;;2.96;100.00;98865.41;5178966;27;20050;-76
2022/12/22 07:45:11;;;;;;;106.80;35.88;;;;;;;2.82;100.00;98886.47;5180309;27;20054;-72
2022/12/22 07:47:37;;;;;;;118.18;37.50;;;;;;;2.74;100.00;98884.56;5180082;27;20133;-72
2022/12/22 07:52:49;;;;;;;133.48;40.10;;;;;;;3.04;100.00;98891.69;5180273;27;20053;-68
2022/12/22 07:55:15;;;;;;;131.93;39.05;;;;;;;3.20;100.00;98892.00;5179799;27;20422;-76
2022/12/22 07:57:41;;;;;;;115.20;34.38;;;;;;;3.10;100.00;98905.88;5180198;27;20463;-73
2022/12/22 08:00:08;;;;;;;123.80;37.15;;;;;;;3.22;100.00;98905.22;5179729;27;20137;-70
2022/12/22 08:02:35;;;;;;;121.22;39.65;;;;;;;3.04;100.00;98915.28;5180048;27;20050;-73
2022/12/22 08:05:01;;;;;;;128.02;37.80;;;;;;;3.11;100.00;98910.16;5179635;27;20108;-73
2022/12/22 08:07:27;;;;;;;145.40;37.13;;;;;;;3.29;100.00;98924.47;5179867;27;20077;-73
2022/12/22 08:09:55;;;;;;;117.30;36.35;;;;;;;3.02;100.00;98931.84;5180005;27;20189;-70
2022/12/22 08:12:21;;;;;;;116.03;30.45;;;;;;;3.04;100.00;98932.31;5179558;27;20050;-70
2022/12/22 08:14:47;;;;;;;111.30;30.27;;;;;;;3.04;100.00;98931.53;5179542;27;20046;-75
2022/12/22 08:17:13;;;;;;;105.30;29.90;;;;;;;2.95;100.00;98918.00;5179647;27;20136;-70
2022/12/22 08:19:40;;;;;;;92.93;27.10;;;;;;;2.75;100.00;98919.44;5179555;27;20304;-75
2022/12/22 08:22:06;;;;;;;85.43;25.60;;;;;;;2.88;100.00;98911.47;5179598;27;20089;-68
2022/12/22 08:24:32;;;;;;;95.85;26.40;;;;;;;2.96;100.00;98916.06;5179740;27;20050;-69
2022/12/22 08:27:02;;;;;;;81.65;25.92;;;;;;;3.01;100.00;98907.78;5179350;27;20410;-66
2022/12/22 08:29:32;;;;;;;69.30;24.38;;;;;;;2.93;100.00;98920.25;5179901;27;20105;-75
2022/12/22 08:32:00;;;;;;;93.90;25.20;;;;;;;3.17;100.00;98910.81;5179427;27;20069;-75
2022/12/22 08:34:26;;;;;;;98.95;26.15;;;;;;;3.29;100.00;98919.84;5179385;27;20092;-74
2022/12/22 08:36:55;;;;;;;92.40;28.15;;;;;;;3.17;100.00;98911.59;5179633;27;20050;-73
2022/12/22 08:39:25;;;;;;;88.45;23.83;;;;;;;3.17;100.00;98906.19;5179020;27;20078;-74
2022/12/22 08:41:51;;;;;;;89.45;22.83;;;;;;;3.19;100.00;98897.72;5179489;27;20073;-74
2022/12/22 08:44:20;;;;;;;76.70;25.00;;;;;;;3.18;100.00;98906.97;5179246;27;20057;-74
2022/12/22 08:46:47;;;;;;;87.00;24.17;;;;;;;3.19;100.00;98908.56;5179415;27;20050;-71
2022/12/22 08:49:13;;;;;;;84.30;25.15;;;;;;;3.10;100.00;98902.34;5179186;27;20050;-69
2022/12/22 08:51:39;;;;;;;87.13;24.15;;;;;;;3.31;100.00;98914.13;5179618;27;20042;-69
2022/12/22 08:54:06;;;;;;;78.20;22.50;;;;;;;3.45;100.00;98912.00;5178710;27;20078;-76
2022/12/22 08:56:32;;;;;;;87.03;25.77;;;;;;;3.50;100.00;98925.38;5179445;27;20137;-67
2022/12/22 08:58:58;;;;;;;85.03;25.85;;;;;;;3.43;100.00;98918.84;5178836;27;20133;-74
2022/12/22 09:01:25;;;;;;;82.20;27.05;;;;;;;3.33;100.00;98906.44;5179054;27;20050;-68
2022/12/22 09:03:53;;;;;;;82.05;25.42;;;;;;;3.07;100.00;98917.34;5179104;27;20046;-75
2022/12/22 09:06:21;;;;;;;126.72;28.50;;;;;;;3.10;100.00;98897.75;5178992;27;20376;-69
2022/12/22 09:08:47;;;;;;;99.63;27.77;;;;;;;3.17;100.00;98883.72;5179158;27;20429;-75
2022/12/22 09:11:14;;;;;;;83.82;24.45;;;;;;;3.21;100.00;98873.81;5178948;27;20061;-74
2022/12/22 09:13:40;;;;;;;71.68;24.02;;;;;;;2.84;100.00;98873.41;5179154;27;20045;-72
2022/12/22 09:16:07;;;;;;;89.75;27.50;;;;;;;3.08;100.00;98862.06;5178704;27;20051;-72
2022/12/22 09:18:34;;;;;;;83.60;26.83;;;;;;;2.96;100.00;98873.53;5178883;27;20050;-70
2022/12/22 09:21:00;;;;;;;79.32;25.30;;;;;;;3.01;100.00;98867.97;5178736;27;20129;-72
2022/12/22 09:23:29;;;;;;;84.10;27.02;;;;;;;3.41;100.00;98875.03;5179164;27;20383;-73
2022/12/22 09:25:55;;;;;;;90.13;28.40;;;;;;;3.00;100.00;98877.22;5178583;27;20057;-70
2022/12/22 09:28:22;;;;;;;120.88;33.58;;;;;;;3.20;100.00;98877.63;5178505;27;20050;-75
2022/12/22 09:30:50;;;;;;;118.15;33.53;;;;;;;3.10;100.00;98870.66;5178764;27;20058;-65
2022/12/22 09:33:16;;;;;;;108.50;31.17;;;;;;;3.30;100.00;98872.69;5178586;27;20062;-75
2022/12/22 09:35:43;;;;;;;110.00;32.25;;;;;;;3.34;100.00;98874.75;5178501;27;20073;-69
2022/12/22 09:38:09;;;;;;;97.70;30.67;;;;;;;3.29;100.00;98881.91;5178595;27;20137;-70
2022/12/22 09:40:36;;;;;;;104.07;32.30;;;;;;;3.42;100.00;98879.34;5178475;27;20054;-74
2022/12/22 09:43:03;;;;;;;98.50;33.40;;;;;;;3.26;100.00;98879.84;5178333;27;20100;-74
2022/12/22 09:45:32;;;;;;;104.25;32.65;;;;;;;3.38;100.00;98870.25;5178581;27;20170;-69
2022/12/22 09:48:00;;;;;;;109.03;35.53;;;;;;;3.38;100.00;98862.94;5178237;27;20099;-76
2022/12/22 09:50:26;;;;;;;128.05;37.90;;;;;;;3.35;100.00;98855.44;5178714;27;20054;-72
2022/12/22 09:52:57;;;;;;;123.10;38.13;;;;;;;3.28;100.00;98850.53;5178231;27;20157;-70
2022/12/22 09:55:38;;;;;;;133.45;41.25;;;;;;;3.23;100.00;98849.91;5178072;27;20072;-74
2022/12/22 09:58:15;;;;;;;132.95;42.30;;;;;;;3.46;100.00;98837.69;5178297;27;20046;-72
2022/12/22 10:00:42;;;;;;;111.93;37.78;;;;;;;3.30;100.00;98842.09;5178078;27;20141;-72
2022/12/22 10:03:13;;;;;;;109.82;34.78;;;;;;;3.22;100.00;98846.41;5178251;27;20409;-63
2022/12/22 10:05:45;;;;;;;106.20;34.35;;;;;;;3.39;100.00;98837.41;5178559;27;20110;-70
2022/12/22 10:08:15;;;;;;;102.28;33.45;;;;;;;3.10;100.00;98846.28;5181777;27;20053;-67
2022/12/22 10:10:41;;;;;;;100.18;31.88;;;;;;;3.29;100.00;98843.19;5181590;27;20050;-63
2022/12/22 10:13:19;;;;;;;86.88;28.27;;;;;;;3.04;100.00;98845.66;5181974;27;20106;-72
2022/12/22 10:15:45;;;;;;;109.93;32.42;;;;;;;3.46;100.00;98845.81;5181788;27;20046;-70
2022/12/22 10:18:13;;;;;;;103.28;34.20;;;;;;;3.78;100.00;98849.81;5181573;27;20053;-70
2022/12/22 10:20:41;;;;;;;112.75;35.15;;;;;;;3.58;100.00;98838.94;5181411;27;20458;-68
2022/12/22 10:23:16;;;;;;;116.72;39.28;;;;;;;3.50;100.00;98837.88;5181604;27;20057;-72
2022/12/22 10:25:59;;;;;;;120.93;36.35;;;;;;;3.50;100.00;98838.66;5181540;27;20056;-73
2022/12/22 10:28:29;;;;;;;107.93;34.60;;;;;;;3.46;100.00;98837.69;5181437;27;20061;-69
2022/12/22 10:31:11;;;;;;;112.35;35.92;;;;;;;3.25;100.00;98837.63;5181782;27;20065;-72
2022/12/22 10:33:38;;;;;;;99.93;33.28;;;;;;;3.43;100.00;98827.53;5181227;27;20046;-76
2022/12/22 10:36:06;;;;;;;97.50;31.85;;;;;;;3.43;100.00;98829.44;5181164;27;20050;-76
2022/12/22 10:38:35;;;;;;;77.63;28.08;;;;;;;3.21;100.00;98830.47;5181368;27;20094;-72
2022/12/22 10:41:07;;;;;;;90.32;29.70;;;;;;;3.61;100.00;98825.53;5181392;27;20207;-73
2022/12/22 10:43:38;;;;;;;80.40;27.23;;;;;;;3.58;100.00;98820.75;5181388;27;20045;-69
2022/12/22 10:46:05;;;;;;;80.45;28.42;;;;;;;3.34;100.00;98817.84;5180923;27;20046;-62
2022/12/22 10:48:33;;;;;;;91.28;30.08;;;;;;;3.34;100.00;98836.81;5181287;27;20376;-63
2022/12/22 10:51:00;;;;;;;81.78;29.05;;;;;;;3.47;100.00;98838.50;5180624;27;20046;-70
2022/12/22 10:53:47;;;;;;;83.45;27.02;;;;;;;3.57;100.00;98843.56;5181216;27;20050;-70
2022/12/22 10:56:23;;;;;;;76.38;25.35;;;;;;;3.46;100.00;98843.13;5180748;27;20046;-76
2022/12/22 10:58:52;;;;;;;96.18;28.58;;;;;;;3.54;100.00;98838.78;5180893;27;20129;-68
2022/12/22 11:01:28;;;;;;;67.68;23.08;;;;;;;3.53;100.00;98827.16;5181088;27;20046;-75
2022/12/22 11:03:54;;;;;;;73.75;25.98;;;;;;;3.13;100.00;98829.38;5180674;27;20431;-70
2022/12/22 11:06:21;;;;;;;74.50;25.58;;;;;;;3.61;100.00;98832.88;5181165;27;20106;-75
2022/12/22 11:08:48;;;;;;;80.68;24.83;;;;;;;3.69;100.00;98840.16;5180717;27;20380;-75
2022/12/22 11:11:24;;;;;;;80.72;23.92;;;;;;;3.54;100.00;98828.75;5180982;27;20047;-70
2022/12/22 11:14:01;;;;;;;85.82;24.50;;;;;;;3.54;100.00;98834.16;5180626;27;20348;-72
2022/12/22 11:16:36;;;;;;;81.60;26.17;;;;;;;3.47;100.00;98833.09;5180450;27;20050;-75
2022/12/22 11:19:29;;;;;;;74.63;23.95;;;;;;;3.26;100.00;98820.25;5180467;27;20310;-76
2022/12/22 11:22:01;;;;;;;71.88;23.40;;;;;;;3.51;100.00;98832.09;5180486;27;20085;-69
2022/12/22 11:24:38;;;;;;;82.22;26.13;;;;;;;3.37;100.00;98819.91;5180807;27;20272;-69
2022/12/22 11:27:20;;;;;;;79.53;26.10;;;;;;;3.26;100.00;98824.88;5180535;27;20414;-77
2022/12/22 11:30:09;;;;;;;87.82;25.17;;;;;;;3.15;100.00;98820.94;5180759;27;20080;-70
2022/12/22 11:33:02;;;;;;;85.03;27.13;;;;;;;3.19;100.00;98819.16;5180269;27;20046;-75
2022/12/22 11:35:43;;;;;;;74.60;24.00;;;;;;;3.28;100.00;98812.59;5180236;27;20434;-75
2022/12/22 11:38:20;;;;;;;76.60;25.45;;;;;;;3.40;100.00;98808.38;5180672;27;20177;-75
2022/12/22 11:40:52;;;;;;;82.68;24.38;;;;;;;3.41;100.00;98801.88;5180181;27;20419;-75
2022/12/22 11:43:24;;;;;;;78.82;28.33;;;;;;;3.55;100.00;98810.56;5179833;27;20050;-77
2022/12/22 11:46:01;;;;;;;103.55;33.88;;;;;;;3.36;100.00;98802.84;5180019;27;20054;-76
2022/12/22 11:49:00;;;;;;;86.88;28.75;;;;;;;3.37;100.00;98809.88;5180236;27;20063;-71
2022/12/22 11:51:41;;;;;;;111.93;31.00;;;;;;;3.70;100.00;98810.00;5171921;27;20114;-73
2022/12/22 11:54:39;;;;;;;90.70;26.77;;;;;;;3.60;100.00;98804.97;5179825;27;20046;-67
2022/12/22 11:57:16;;;;;;;79.30;24.63;;;;;;;3.63;100.00;98804.31;5179998;27;20077;-64
2022/12/22 11:59:51;;;;;;;85.68;26.08;;;;;;;3.55;100.00;98805.13;5179624;27;20050;-71
2022/12/22 12:02:48;;;;;;;72.47;23.77;;;;;;;3.39;100.00;98807.59;5179670;27;20057;-66
2022/12/22 12:05:43;;;;;;;67.10;23.40;;;;;;;3.56;100.00;98812.16;5179942;27;20046;-70
2022/12/22 12:08:21;;;;;;;77.85;24.35;;;;;;;3.84;100.00;98814.41;5176803;27;20057;-70
2022/12/22 12:10:51;;;;;;;71.28;22.92;;;;;;;3.88;100.00;98815.34;5179639;27;20099;-67
2022/12/22 12:13:26;;;;;;;81.78;22.83;;;;;;;3.90;100.00;98800.31;5179817;27;20402;-76
2022/12/22 12:16:00;;;;;;;74.55;23.27;;;;;;;3.79;100.00;98799.09;5179760;27;20065;-73
2022/12/22 12:18:37;;;;;;;;;;;;;;;3.81;100.00;98799.56;5180329;27;20129;-75
2022/12/22 12:21:31;;;;;;;81.47;23.48;;;;;;;3.80;100.00;98797.19;5179357;27;19923;-70
2022/12/22 12:24:24;;;;;;;67.30;22.93;;;;;;;3.67;100.00;98802.53;5179660;27;20311;-75
2022/12/22 12:27:00;;;;;;;81.75;24.17;;;;;;;3.76;100.00;98791.63;5179520;27;20053;-71
2022/12/22 12:29:28;;;;;;;85.30;24.85;;;;;;;3.72;100.00;98807.75;5178741;27;20129;-72
2022/12/22 12:32:02;;;;;;;66.63;23.00;;;;;;;3.66;100.00;98806.34;5179651;27;20057;-74
2022/12/22 12:34:33;;;;;;;74.27;23.97;;;;;;;3.37;100.00;98801.72;5179311;27;20049;-67
2022/12/22 12:37:06;;;;;;;79.38;23.17;;;;;;;3.48;100.00;98805.66;5179609;27;20275;-72
2022/12/22 12:39:40;;;;;;;85.47;25.10;;;;;;;3.62;100.00;98813.56;5179034;27;20073;-73
2022/12/22 12:42:21;;;;;;;71.28;23.60;;;;;;;3.64;100.00;98815.94;5179363;27;20054;-72
2022/12/22 12:44:51;;;;;;;80.43;25.23;;;;;;;3.58;100.00;98823.47;5179424;27;20132;-81
2022/12/22 12:47:22;;;;;;;72.90;24.65;;;;;;;3.45;100.00;98814.44;5179047;27;20407;-73
2022/12/22 12:50:00;;;;;;;110.43;27.58;;;;;;;3.00;100.00;98817.66;5178565;27;20064;-67
2022/12/22 12:53:06;;;;;;;111.50;30.13;;;;;;;2.64;100.00;98815.31;5178732;27;20469;-65
2022/12/22 12:55:50;;;;;;;81.22;28.58;;;;;;;2.73;100.00;98791.75;5170487;27;20054;-64
2022/12/22 12:58:51;;;;;;;93.73;28.10;;;;;;;2.80;100.00;98781.22;5179275;27;20062;-64
2022/12/22 13:01:52;;;;;;;71.93;23.95;;;;;;;2.89;100.00;98753.31;5178778;27;20314;-67
2022/12/22 13:04:51;;;;;;;90.63;26.35;;;;;;;3.02;100.00;98753.09;5179285;27;20050;-66
2022/12/22 13:07:56;;;;;;;98.13;29.38;;;;;;;3.14;100.00;98759.75;5178845;27;20102;-66
2022/12/22 13:10:24;;;;;;;102.75;35.08;;;;;;;3.33;100.00;98770.19;5178656;27;20064;-68
2022/12/22 13:12:53;;;;;;;116.50;40.17;;;;;;;3.34;100.00;98788.03;5179020;27;20050;-64
2022/12/22 13:15:31;;;;;;;121.97;36.15;;;;;;;3.09;100.00;98787.81;5178669;27;20050;-68
2022/12/22 13:17:57;;;;;;;126.05;45.53;;;;;;;2.99;100.00;98780.81;5178478;27;20050;-67
2022/12/22 13:20:27;;;;;;;135.25;45.60;;;;;;;3.36;100.00;98772.25;5179163;27;20110;-66
2022/12/22 13:22:56;;;;;;;140.00;47.88;;;;;;;3.50;100.00;98779.03;5179079;27;20061;-74
2022/12/22 13:25:25;;;;;;;123.55;42.22;;;;;;;3.45;100.00;98789.25;5179166;27;20054;-77
2022/12/22 13:27:52;;;;;;;112.70;40.58;;;;;;;3.42;100.00;98803.44;5178705;27;20137;-67
2022/12/22 13:30:20;;;;;;;149.52;41.58;;;;;;;3.35;100.00;98809.38;5178785;27;20078;-72
2022/12/22 13:32:49;;;;;;;121.50;40.58;;;;;;;3.25;100.00;98809.75;5178400;27;20046;-71
2022/12/22 13:35:19;;;;;;;130.13;38.40;;;;;;;3.21;100.00;98815.00;5178245;27;20082;-67
2022/12/22 13:37:47;;;;;;;134.23;40.60;;;;;;;3.00;100.00;98804.09;5178454;27;20060;-72
2022/12/22 13:40:17;;;;;;;138.60;41.17;;;;;;;2.83;100.00;98798.72;5178728;27;20100;-69
2022/12/22 13:42:46;;;;;;;127.82;37.60;;;;;;;2.89;100.00;98769.56;5182202;27;20053;-68
2022/12/22 13:45:18;;;;;;;141.13;39.65;;;;;;;3.32;100.00;98763.97;5182245;27;20046;-66
2022/12/22 13:47:46;;;;;;;120.75;36.08;;;;;;;3.35;100.00;98776.06;5182111;27;20057;-70
2022/12/22 13:50:19;;;;;;;147.95;38.85;;;;;;;3.30;100.00;98785.19;5182172;27;20150;-72
2022/12/22 13:52:46;;;;;;;140.80;38.10;;;;;;;3.27;100.00;98800.19;5164033;27;20188;-71
2022/12/22 13:55:17;;;;;;;141.05;36.80;;;;;;;3.17;100.00;98808.66;5182388;27;20078;-69
2022/12/22 13:57:43;;;;;;;184.32;35.47;;;;;;;3.24;100.00;98800.81;5182051;27;20082;-72
2022/12/22 14:00:21;;;;;;;108.63;33.95;;;;;;;3.27;100.00;98800.19;5182411;27;20105;-68
2022/12/22 14:02:47;;;;;;;114.18;36.38;;;;;;;3.10;100.00;98810.25;5181842;27;20050;-71
2022/12/22 14:05:14;;;;;;;123.57;34.80;;;;;;;3.19;100.00;98792.88;5182003;27;20073;-68
2022/12/22 14:07:57;;;;;;;150.93;33.58;;;;;;;3.06;100.00;98791.16;5181992;27;20057;-72
2022/12/22 14:10:27;;;;;;;129.38;33.08;;;;;;;3.10;100.00;98783.19;5181856;27;20073;-65
2022/12/22 14:12:54;;;;;;;118.30;34.20;;;;;;;2.54;100.00;98783.19;5181854;27;20054;-62
2022/12/22 14:15:20;;;;;;;118.80;33.05;;;;;;;2.91;100.00;98734.84;5181787;27;20056;-66
2022/12/22 14:17:47;;;;;;;111.25;30.38;;;;;;;2.95;100.00;98738.47;5181922;27;20057;-64
2022/12/22 14:20:18;;;;;;;133.77;34.58;;;;;;;3.13;100.00;98745.41;5181342;27;20052;-64
2022/12/22 14:22:48;;;;;;;170.25;35.75;;;;;;;3.01;100.00;98756.16;5182009;27;20074;-63
2022/12/22 14:25:18;;;;;;;115.47;35.38;;;;;;;2.99;100.00;98759.16;5181430;27;20128;-64
2022/12/22 14:27:47;;;;;;;153.20;38.22;;;;;;;2.75;100.00;98743.47;5181369;27;20050;-62
2022/12/22 14:30:17;;;;;;;141.50;37.78;;;;;;;2.52;100.00;98734.78;5181571;27;20052;-66
2022/12/22 14:32:46;;;;;;;143.95;38.40;;;;;;;2.42;100.00;98713.47;5181375;27;20102;-64
2022/12/22 14:35:21;;;;;;;122.63;33.22;;;;;;;2.47;100.00;98691.69;5181289;27;20042;-67
2022/12/22 14:37:47;;;;;;;95.07;34.25;;;;;;;2.02;100.00;98656.13;5181078;27;20042;-63
2022/12/22 14:40:28;;;;;;;118.15;32.70;;;;;;;1.87;100.00;98606.84;5181377;27;20326;-64
2022/12/22 14:42:57;;;;;;;115.75;29.45;;;;;;;1.90;100.00;98562.19;5181152;27;20053;-67
2022/12/22 14:45:24;;;;;;;100.18;30.05;;;;;;;2.25;100.00;98521.50;5181533;27;20182;-66
2022/12/22 14:47:51;;;;;;;116.80;27.98;;;;;;;2.01;100.00;98520.16;5180944;27;20387;-62
2022/12/22 14:50:19;;;;;;;118.43;28.58;;;;;;;2.62;100.00;98510.94;5180887;27;20105;-65
2022/12/22 14:52:48;;;;;;;115.57;28.15;;;;;;;2.56;100.00;98542.81;5180511;27;20103;-63
2022/12/22 14:55:24;;;;;;;106.18;26.48;;;;;;;2.22;100.00;98563.50;5181106;27;20061;-63
2022/12/22 14:57:54;;;;;;;95.47;26.58;;;;;;;2.44;100.00;98559.75;5181056;27;20050;-65
2022/12/22 15:00:32;;;;;;;100.75;28.17;;;;;;;2.39;100.00;98562.63;5180802;27;20050;-64
2022/12/22 15:03:01;;;;;;;93.05;27.73;;;;;;;2.03;100.00;98563.06;5181079;27;20046;-62
2022/12/22 15:05:28;;;;;;;105.35;30.08;;;;;;;1.88;100.00;98529.25;5180906;27;20440;-65
2022/12/22 15:07:57;;;;;;;133.07;31.30;;;;;;;2.08;100.00;98496.09;5181251;27;20050;-66